Terminal Aerodrome Forecast
Issued by NWS

Home | Current Version | Previous Version | Graphics & Text | Print | Product List | Glossary On
Versions: 1 2 3 4 5 6 7 8 9 10 11 12 13 14
857
FTUS43 KBIS 150530
TAFMOT
TAF
KMOT 150530Z 1506/1606 31017KT P6SM FEW020 SCT035
     FM152200 30009KT P6SM FEW250
     FM160300 27006KT P6SM FEW250=

USA.gov is the U.S. government's official web portal to all federal, state and local government web resources and services.